Wetterdaten: Woche 14.03.16 - 20.03.16 (KW11)
Datum Zeit Temp. Aussen Temp. o. S. +5cm Feuchte Auss BlattFeu 1 Luftdruck Regen Sonnenschein Regendauer Solar Windben Empfang
14.03.2016 00:00 1,4 C 1,3 C -0,1 C 85 % 0 lf 1033,5 hPa 0,0 l/m 0,00 h 0,00 h 0 W/m 23,8 km/h (4 Bft) 95,60 %
14.03.2016 01:00 0,8 C 0,6 C -0,7 C 85 % 0 lf 1033,4 hPa 0,0 l/m 0,00 h 0,00 h 0 W/m 20,6 km/h (4 Bft) 94,14 %
14.03.2016 02:00 0,1 C -0,5 C -1,5 C 86 % 0 lf 1033,3 hPa 0,0 l/m 0,00 h 0,00 h 0 W/m 17,3 km/h (3 Bft) 96,65 %
14.03.2016 03:00 -0,4 C -0,6 C -1,7 C 88 % 0 lf 1033,1 hPa 0,0 l/m 0,00 h 0,00 h 0 W/m 15,9 km/h (3 Bft) 98,07 %
14.03.2016 04:00 -0,7 C -1,0 C -2,1 C 89 % 0 lf 1033,0 hPa 0,0 l/m 0,00 h 0,00 h 0 W/m 12,2 km/h (2 Bft) 94,46 %
14.03.2016 05:00 -1,2 C -1,8 C -2,7 C 89 % 0 lf 1033,2 hPa 0,0 l/m 0,00 h 0,00 h 0 W/m 10,7 km/h (2 Bft) 94,73 %
14.03.2016 06:00 -1,5 C -1,6 C -2,8 C 90 % 1 lf 1033,4 hPa 0,0 l/m 0,00 h 0,00 h 7 W/m 12,1 km/h (2 Bft) 97,65 %
14.03.2016 07:00 -1,5 C -0,8 C -2,2 C 91 % 0 lf 1033,7 hPa 0,0 l/m 0,83 h 0,00 h 58 W/m 14,1 km/h (3 Bft) 94,44 %
14.03.2016 08:00 -0,0 C 5,8 C 1,4 C 92 % 0 lf 1033,8 hPa 0,0 l/m 1,00 h 0,00 h 221 W/m 17,5 km/h (3 Bft) 97,72 %
14.03.2016 09:00 3,0 C 10,1 C 7,4 C 81 % 0 lf 1033,7 hPa 0,0 l/m 1,00 h 0,00 h 386 W/m 21,2 km/h (4 Bft) 95,46 %
14.03.2016 10:00 4,9 C 11,4 C 10,2 C 71 % 0 lf 1033,5 hPa 0,0 l/m 1,00 h 0,00 h 514 W/m 21,4 km/h (4 Bft) 94,43 %
14.03.2016 11:00 6,5 C 14,5 C 11,2 C 66 % 0 lf 1033,1 hPa 0,0 l/m 1,00 h 0,00 h 601 W/m 22,1 km/h (4 Bft) 97,87 %
14.03.2016 12:00 7,9 C 15,3 C 7,5 C 61 % 0 lf 1032,5 hPa 0,0 l/m 1,00 h 0,00 h 634 W/m 23,3 km/h (4 Bft) 96,53 %
14.03.2016 13:00 9,1 C 15,7 C 7,6 C 56 % 0 lf 1031,7 hPa 0,0 l/m 1,00 h 0,00 h 597 W/m 25,0 km/h (4 Bft) 92,95 %
14.03.2016 14:00 10,0 C 15,2 C 8,1 C 52 % 0 lf 1030,9 hPa 0,0 l/m 0,95 h 0,00 h 495 W/m 26,6 km/h (4 Bft) 98,40 %
14.03.2016 15:00 10,8 C 16,9 C 8,7 C 51 % 0 lf 1030,2 hPa 0,0 l/m 1,00 h 0,00 h 427 W/m 26,6 km/h (4 Bft) 97,51 %
14.03.2016 16:00 11,2 C 16,2 C 8,7 C 49 % 0 lf 1029,6 hPa 0,0 l/m 1,00 h 0,00 h 279 W/m 23,0 km/h (4 Bft) 93,24 %
14.03.2016 17:00 10,1 C 11,4 C 7,6 C 50 % 0 lf 1029,3 hPa 0,0 l/m 0,80 h 0,00 h 107 W/m 27,9 km/h (4 Bft) 96,15 %
14.03.2016 18:00 8,3 C 7,6 C 5,6 C 55 % 0 lf 1029,4 hPa 0,0 l/m 0,00 h 0,00 h 15 W/m 21,7 km/h (4 Bft) 96,25 %
14.03.2016 19:00 6,8 C 6,3 C 4,2 C 60 % 0 lf 1029,3 hPa 0,0 l/m 0,00 h 0,00 h 0 W/m 20,1 km/h (4 Bft) 94,83 %
14.03.2016 20:00 6,0 C 5,5 C 3,3 C 63 % 0 lf 1028,9 hPa 0,0 l/m 0,00 h 0,00 h 0 W/m 16,3 km/h (3 Bft) 96,83 %
14.03.2016 21:00 5,2 C 4,8 C 2,6 C 67 % 0 lf 1028,7 hPa 0,0 l/m 0,00 h 0,00 h 0 W/m 14,6 km/h (3 Bft) 95,53 %
14.03.2016 22:00 4,6 C 3,8 C 1,6 C 70 % 0 lf 1028,7 hPa 0,0 l/m 0,00 h 0,00 h 0 W/m 9,9 km/h (2 Bft) 96,46 %
14.03.2016 23:00 3,7 C 2,7 C 0,6 C 73 % 0 lf 1028,6 hPa 0,0 l/m 0,00 h 0,00 h 0 W/m 6,7 km/h (2 Bft) 94,72 %
15.03.2016 00:00 2,6 C 1,2 C -0,7 C 76 % 0 lf 1028,6 hPa 0,0 l/m 0,00 h 0,00 h 0 W/m 4,9 km/h (1 Bft) 94,83 %
15.03.2016 01:00 1,5 C -0,2 C -1,6 C 79 % 0 lf 1028,5 hPa 0,0 l/m 0,00 h 0,00 h 0 W/m 3,6 km/h (1 Bft) 95,91 %
15.03.2016 02:00 0,7 C -0,4 C -1,6 C 83 % 0 lf 1028,0 hPa 0,0 l/m 0,00 h 0,00 h 0 W/m 5,4 km/h (1 Bft) 98,09 %
15.03.2016 03:00 -0,1 C -1,7 C -2,7 C 83 % 0 lf 1027,7 hPa 0,0 l/m 0,00 h 0,00 h 0 W/m 4,2 km/h (1 Bft) 95,19 %
15.03.2016 04:00 -0,8 C -1,7 C -2,8 C 85 % 1 lf 1027,5 hPa 0,0 l/m 0,00 h 0,00 h 0 W/m 3,4 km/h (1 Bft) 95,20 %
15.03.2016 05:00 -1,0 C -1,7 C -2,6 C 87 % 1 lf 1027,3 hPa 0,0 l/m 0,00 h 0,00 h 0 W/m 1,8 km/h (1 Bft) 97,04 %
15.03.2016 06:00 -0,9 C -1,3 C -2,0 C 89 % 0 lf 1027,4 hPa 0,0 l/m 0,00 h 0,00 h 5 W/m 0,0 km/h (0 Bft) 95,23 %
15.03.2016 07:00 -0,5 C 0,2 C -0,9 C 90 % 0 lf 1027,4 hPa 0,0 l/m 0,00 h 0,00 h 36 W/m 1,5 km/h (1 Bft) 97,57 %
15.03.2016 08:00 1,0 C 5,0 C 1,9 C 92 % 0 lf 1027,2 hPa 0,0 l/m 0,80 h 0,00 h 145 W/m 6,2 km/h (2 Bft) 95,32 %
15.03.2016 09:00 3,8 C 9,1 C 5,5 C 88 % 0 lf 1027,1 hPa 0,0 l/m 0,70 h 0,00 h 254 W/m 15,5 km/h (3 Bft) 95,28 %
15.03.2016 10:00 4,7 C 7,4 C 4,9 C 83 % 0 lf 1027,1 hPa 0,0 l/m 0,73 h 0,00 h 267 W/m 17,9 km/h (3 Bft) 95,96 %
15.03.2016 11:00 4,6 C 6,5 C 4,6 C 86 % 0 lf 1026,9 hPa 0,0 l/m 0,27 h 0,00 h 231 W/m 20,3 km/h (4 Bft) 97,06 %
15.03.2016 12:00 4,7 C 5,9 C 4,5 C 89 % 0 lf 1026,8 hPa 0,0 l/m 0,00 h 0,00 h 122 W/m 21,7 km/h (4 Bft) 94,63 %
15.03.2016 13:00 5,6 C 6,9 C 5,5 C 88 % 0 lf 1026,2 hPa 0,0 l/m 0,00 h 0,00 h 131 W/m 21,5 km/h (4 Bft) 96,98 %
15.03.2016 14:00 6,2 C 7,1 C 5,6 C 87 % 0 lf 1026,0 hPa 0,0 l/m 0,00 h 0,00 h 85 W/m 21,2 km/h (4 Bft) 96,03 %
15.03.2016 15:00 6,6 C 7,7 C 6,3 C 88 % 0 lf 1025,7 hPa 0,0 l/m 0,00 h 0,00 h 95 W/m 19,2 km/h (3 Bft) 96,06 %
15.03.2016 16:00 7,2 C 8,3 C 6,7 C 86 % 0 lf 1025,2 hPa 0,0 l/m 0,00 h 0,00 h 96 W/m 19,6 km/h (3 Bft) 95,58 %
15.03.2016 17:00 7,3 C 7,7 C 6,2 C 84 % 0 lf 1025,0 hPa 0,0 l/m 0,00 h 0,00 h 43 W/m 21,0 km/h (4 Bft) 94,94 %
15.03.2016 18:00 6,8 C 6,0 C 4,5 C 85 % 0 lf 1025,1 hPa 0,0 l/m 0,00 h 0,00 h 10 W/m 11,4 km/h (2 Bft) 95,86 %
15.03.2016 19:00 5,5 C 4,5 C 3,1 C 86 % 0 lf 1025,5 hPa 0,0 l/m 0,00 h 0,00 h 0 W/m 5,5 km/h (1 Bft) 96,90 %
15.03.2016 20:00 5,0 C 4,7 C 3,5 C 89 % 0 lf 1025,7 hPa 0,0 l/m 0,00 h 0,00 h 0 W/m 9,2 km/h (2 Bft) 95,12 %
15.03.2016 21:00 4,2 C 3,4 C 2,3 C 91 % 1 lf 1025,9 hPa 0,0 l/m 0,00 h 0,00 h 0 W/m 9,4 km/h (2 Bft) 94,37 %
15.03.2016 22:00 3,7 C 3,2 C 1,7 C 92 % 1 lf 1026,0 hPa 0,0 l/m 0,00 h 0,00 h 0 W/m 12,6 km/h (3 Bft) 97,67 %
15.03.2016 23:00 3,8 C 3,8 C 2,3 C 94 % 1 lf 1026,2 hPa 0,0 l/m 0,00 h 0,00 h 0 W/m 17,0 km/h (3 Bft) 97,03 %
16.03.2016 00:00 3,6 C 3,3 C 1,7 C 94 % 2 lf 1026,1 hPa 0,0 l/m 0,00 h 0,00 h 0 W/m 16,5 km/h (3 Bft) 95,35 %
16.03.2016 01:00 3,2 C 3,3 C 1,7 C 94 % 1 lf 1026,1 hPa 0,0 l/m 0,00 h 0,00 h 0 W/m 20,1 km/h (4 Bft) 93,67 %
16.03.2016 02:00 2,8 C 2,8 C 1,0 C 92 % 1 lf 1026,1 hPa 0,0 l/m 0,00 h 0,00 h 0 W/m 18,2 km/h (3 Bft) 98,86 %
16.03.2016 03:00 2,2 C 2,3 C 0,6 C 90 % 0 lf 1026,2 hPa 0,0 l/m 0,00 h 0,00 h 0 W/m 19,1 km/h (3 Bft) 94,80 %
16.03.2016 04:00 1,9 C 2,1 C 0,6 C 89 % 0 lf 1026,4 hPa 0,0 l/m 0,00 h 0,00 h 0 W/m 15,6 km/h (3 Bft) 85,13 %
16.03.2016 05:00 2,1 C 2,8 C 1,3 C 87 % 0 lf 1026,8 hPa 0,0 l/m 0,00 h 0,00 h 0 W/m 21,8 km/h (4 Bft) 95,49 %
16.03.2016 06:00 2,7 C 3,3 C 1,7 C 83 % 0 lf 1027,0 hPa 0,0 l/m 0,00 h 0,00 h 6 W/m 24,5 km/h (4 Bft) 95,04 %
16.03.2016 07:00 3,2 C 3,9 C 2,4 C 81 % 0 lf 1027,4 hPa 0,0 l/m 0,03 h 0,00 h 37 W/m 25,0 km/h (4 Bft) 97,35 %
16.03.2016 08:00 4,5 C 9,2 C 5,5 C 78 % 0 lf 1027,7 hPa 0,0 l/m 1,00 h 0,00 h 225 W/m 26,8 km/h (4 Bft) 97,49 %
16.03.2016 09:00 6,5 C 11,5 C 10,1 C 68 % 0 lf 1027,8 hPa 0,0 l/m 1,00 h 0,00 h 384 W/m 33,5 km/h (5 Bft) 92,77 %
16.03.2016 10:00 7,5 C 12,0 C 11,2 C 62 % 0 lf 1027,9 hPa 0,0 l/m 1,00 h 0,00 h 506 W/m 35,8 km/h (5 Bft) 98,16 %
16.03.2016 11:00 7,9 C 10,1 C 9,1 C 60 % 0 lf 1028,0 hPa 0,0 l/m 0,60 h 0,00 h 336 W/m 35,7 km/h (5 Bft) 96,05 %
16.03.2016 12:00 8,3 C 10,4 C 8,7 C 59 % 0 lf 1027,9 hPa 0,0 l/m 0,50 h 0,00 h 344 W/m 35,5 km/h (5 Bft) 93,66 %
16.03.2016 13:00 8,5 C 11,4 C 8,5 C 58 % 0 lf 1027,5 hPa 0,0 l/m 0,57 h 0,00 h 352 W/m 32,2 km/h (5 Bft) 96,31 %
16.03.2016 14:00 9,9 C 14,5 C 9,1 C 56 % 0 lf 1027,1 hPa 0,0 l/m 0,97 h 0,00 h 514 W/m 36,1 km/h (5 Bft) 97,58 %
16.03.2016 15:00 9,6 C 13,0 C 8,4 C 56 % 0 lf 1026,9 hPa 0,0 l/m 0,83 h 0,00 h 362 W/m 40,1 km/h (6 Bft) 94,66 %
16.03.2016 16:00 8,8 C 9,7 C 7,3 C 58 % 0 lf 1026,9 hPa 0,0 l/m 0,27 h 0,00 h 142 W/m 34,2 km/h (5 Bft) 96,51 %
16.03.2016 17:00 8,0 C 8,6 C 6,8 C 58 % 0 lf 1027,3 hPa 0,0 l/m 0,40 h 0,00 h 87 W/m 35,4 km/h (5 Bft) 97,02 %
16.03.2016 18:00 7,0 C 6,6 C 4,9 C 62 % 0 lf 1027,7 hPa 0,0 l/m 0,10 h 0,00 h 19 W/m 24,7 km/h (4 Bft) 94,83 %
16.03.2016 19:00 5,6 C 4,7 C 2,9 C 68 % 0 lf 1028,2 hPa 0,0 l/m 0,00 h 0,00 h 0 W/m 13,1 km/h (3 Bft) 97,06 %
16.03.2016 20:00 4,4 C 4,0 C 2,2 C 71 % 0 lf 1028,4 hPa 0,0 l/m 0,00 h 0,00 h 0 W/m 15,5 km/h (3 Bft) 95,56 %
16.03.2016 21:00 3,9 C 4,0 C 2,0 C 74 % 0 lf 1028,4 hPa 0,0 l/m 0,00 h 0,00 h 0 W/m 16,9 km/h (3 Bft) 97,02 %
16.03.2016 22:00 3,8 C 3,9 C 1,9 C 74 % 0 lf 1028,6 hPa 0,0 l/m 0,00 h 0,00 h 0 W/m 17,3 km/h (3 Bft) 96,17 %
16.03.2016 23:00 3,6 C 3,7 C 1,9 C 75 % 0 lf 1028,7 hPa 0,0 l/m 0,00 h 0,00 h 0 W/m 19,4 km/h (3 Bft) 95,93 %
17.03.2016 00:00 3,2 C 3,2 C 1,5 C 77 % 0 lf 1028,7 hPa 0,0 l/m 0,00 h 0,00 h 0 W/m 20,4 km/h (4 Bft) 95,51 %
17.03.2016 01:00 2,8 C 2,8 C 1,1 C 78 % 0 lf 1028,8 hPa 0,0 l/m 0,00 h 0,00 h 0 W/m 20,3 km/h (4 Bft) 98,78 %
17.03.2016 02:00 2,2 C 1,9 C 0,3 C 80 % 0 lf 1028,7 hPa 0,0 l/m 0,00 h 0,00 h 0 W/m 15,7 km/h (3 Bft) 93,39 %
17.03.2016 03:00 1,5 C 1,2 C -0,4 C 82 % 0 lf 1028,5 hPa 0,0 l/m 0,00 h 0,00 h 0 W/m 15,0 km/h (3 Bft) 96,78 %
17.03.2016 04:00 1,0 C 0,7 C -0,9 C 84 % 0 lf 1028,4 hPa 0,0 l/m 0,00 h 0,00 h 0 W/m 13,2 km/h (3 Bft) 97,21 %
17.03.2016 05:00 0,5 C 0,4 C -1,6 C 85 % 0 lf 1028,4 hPa 0,0 l/m 0,00 h 0,00 h 0 W/m 10,0 km/h (2 Bft) 94,25 %
17.03.2016 06:00 0,1 C 0,1 C -1,9 C 87 % 0 lf 1028,4 hPa 0,0 l/m 0,00 h 0,00 h 9 W/m 9,9 km/h (2 Bft) 97,09 %
17.03.2016 07:00 0,0 C 0,8 C -0,9 C 88 % 0 lf 1028,5 hPa 0,0 l/m 0,77 h 0,00 h 69 W/m 12,7 km/h (3 Bft) 95,69 %
17.03.2016 08:00 2,2 C 9,2 C 4,0 C 88 % 0 lf 1028,8 hPa 0,0 l/m 1,00 h 0,00 h 235 W/m 18,1 km/h (3 Bft) 94,06 %
17.03.2016 09:00 5,9 C 13,0 C 10,5 C 74 % 0 lf 1028,8 hPa 0,0 l/m 1,00 h 0,00 h 395 W/m 19,9 km/h (4 Bft) 98,23 %
17.03.2016 10:00 8,3 C 16,3 C 13,5 C 65 % 0 lf 1028,4 hPa 0,0 l/m 0,98 h 0,00 h 523 W/m 16,9 km/h (3 Bft) 94,75 %
17.03.2016 11:00 9,9 C 18,2 C 14,3 C 59 % 0 lf 1028,1 hPa 0,0 l/m 1,00 h 0,00 h 603 W/m 14,3 km/h (3 Bft) 94,54 %
17.03.2016 12:00 10,8 C 20,7 C 9,5 C 56 % 0 lf 1027,5 hPa 0,0 l/m 1,00 h 0,00 h 633 W/m 14,8 km/h (3 Bft) 97,20 %
17.03.2016 13:00 11,7 C 19,5 C 9,9 C 53 % 0 lf 1026,8 hPa 0,0 l/m 1,00 h 0,00 h 616 W/m 14,9 km/h (3 Bft) 97,36 %
17.03.2016 14:00 12,4 C 20,4 C 10,1 C 51 % 0 lf 1026,1 hPa 0,0 l/m 1,00 h 0,00 h 545 W/m 13,2 km/h (3 Bft) 92,88 %
17.03.2016 15:00 12,2 C 19,4 C 10,1 C 52 % 0 lf 1025,5 hPa 0,0 l/m 0,97 h 0,00 h 426 W/m 14,4 km/h (3 Bft) 98,14 %
17.03.2016 16:00 12,4 C 18,0 C 10,1 C 52 % 0 lf 1024,9 hPa 0,0 l/m 1,00 h 0,00 h 275 W/m 14,7 km/h (3 Bft) 97,15 %
17.03.2016 17:00 11,8 C 13,9 C 9,6 C 55 % 0 lf 1024,6 hPa 0,0 l/m 0,68 h 0,00 h 105 W/m 14,6 km/h (3 Bft) 94,64 %
17.03.2016 18:00 10,5 C 9,5 C 8,0 C 58 % 0 lf 1024,4 hPa 0,0 l/m 0,07 h 0,00 h 18 W/m 8,8 km/h (2 Bft) 95,17 %
17.03.2016 19:00 8,4 C 5,7 C 3,7 C 64 % 0 lf 1024,5 hPa 0,0 l/m 0,00 h 0,00 h 0 W/m 2,8 km/h (1 Bft) 96,65 %
17.03.2016 20:00 6,1 C 3,7 C 2,1 C 70 % 0 lf 1024,4 hPa 0,0 l/m 0,00 h 0,00 h 0 W/m 3,0 km/h (1 Bft) 97,22 %
17.03.2016 21:00 4,6 C 2,7 C 1,2 C 74 % 0 lf 1024,4 hPa 0,0 l/m 0,00 h 0,00 h 0 W/m 4,8 km/h (1 Bft) 94,23 %
17.03.2016 22:00 3,4 C 1,7 C 0,5 C 78 % 0 lf 1024,2 hPa 0,0 l/m 0,00 h 0,00 h 0 W/m 1,9 km/h (1 Bft) 96,72 %
17.03.2016 23:00 2,5 C 1,0 C -0,1 C 81 % 0 lf 1024,1 hPa 0,0 l/m 0,00 h 0,00 h 0 W/m 2,5 km/h (1 Bft) 96,59 %
18.03.2016 00:00 1,9 C 0,5 C -0,6 C 83 % 1 lf 1024,0 hPa 0,0 l/m 0,00 h 0,00 h 0 W/m 4,1 km/h (1 Bft) 97,87 %
18.03.2016 01:00 1,3 C 0,0 C -1,1 C 85 % 1 lf 1023,7 hPa 0,0 l/m 0,00 h 0,00 h 0 W/m 5,3 km/h (1 Bft) 95,02 %
18.03.2016 02:00 0,7 C -0,3 C -1,6 C 87 % 1 lf 1023,5 hPa 0,0 l/m 0,00 h 0,00 h 0 W/m 5,1 km/h (1 Bft) 93,88 %
18.03.2016 03:00 0,4 C -0,9 C -1,9 C 88 % 2 lf 1023,0 hPa 0,0 l/m 0,00 h 0,00 h 0 W/m 4,2 km/h (1 Bft) 97,44 %
18.03.2016 04:00 0,0 C -1,2 C -2,2 C 89 % 3 lf 1022,6 hPa 0,0 l/m 0,00 h 0,00 h 0 W/m 2,7 km/h (1 Bft) 95,02 %
18.03.2016 05:00 -0,3 C -1,0 C -1,7 C 90 % 10 lf 1022,5 hPa 0,0 l/m 0,00 h 0,00 h 0 W/m 8,3 km/h (2 Bft) 97,58 %
18.03.2016 06:00 0,3 C 0,2 C -0,9 C 93 % 15 lf 1022,7 hPa 0,0 l/m 0,00 h 0,00 h 5 W/m 15,0 km/h (3 Bft) 96,73 %
18.03.2016 07:00 0,2 C 0,5 C -0,4 C 95 % 15 lf 1022,9 hPa 0,0 l/m 0,00 h 0,00 h 18 W/m 10,5 km/h (2 Bft) 94,14 %
18.03.2016 08:00 0,6 C 1,2 C 0,1 C 95 % 15 lf 1023,1 hPa 0,0 l/m 0,00 h 0,00 h 40 W/m 8,0 km/h (2 Bft) 96,16 %
18.03.2016 09:00 1,1 C 2,1 C 0,8 C 96 % 15 lf 1023,1 hPa 0,0 l/m 0,00 h 0,00 h 71 W/m 11,5 km/h (2 Bft) 96,65 %
18.03.2016 10:00 1,5 C 3,2 C 1,8 C 96 % 5 lf 1023,1 hPa 0,0 l/m 0,00 h 0,00 h 106 W/m 8,8 km/h (2 Bft) 96,30 %
18.03.2016 11:00 2,3 C 4,6 C 3,1 C 97 % 0 lf 1023,0 hPa 0,0 l/m 0,00 h 0,00 h 153 W/m 10,3 km/h (2 Bft) 95,08 %
18.03.2016 12:00 3,3 C 5,6 C 3,7 C 96 % 0 lf 1023,0 hPa 0,0 l/m 0,00 h 0,00 h 136 W/m 8,0 km/h (2 Bft) 95,75 %
18.03.2016 13:00 4,1 C 5,8 C 4,1 C 94 % 0 lf 1022,5 hPa 0,0 l/m 0,00 h 0,00 h 116 W/m 9,6 km/h (2 Bft) 95,87 %
18.03.2016 14:00 4,7 C 5,6 C 4,3 C 91 % 0 lf 1022,0 hPa 0,0 l/m 0,00 h 0,00 h 82 W/m 9,7 km/h (2 Bft) 97,22 %
18.03.2016 15:00 5,1 C 6,2 C 4,7 C 91 % 0 lf 1021,7 hPa 0,0 l/m 0,00 h 0,00 h 89 W/m 10,8 km/h (2 Bft) 94,38 %
18.03.2016 16:00 5,6 C 6,4 C 5,0 C 90 % 0 lf 1021,3 hPa 0,0 l/m 0,00 h 0,00 h 58 W/m 7,7 km/h (2 Bft) 95,79 %
18.03.2016 17:00 5,7 C 6,1 C 4,5 C 90 % 0 lf 1021,2 hPa 0,0 l/m 0,00 h 0,00 h 24 W/m 6,9 km/h (2 Bft) 96,65 %
18.03.2016 18:00 5,4 C 5,6 C 4,0 C 91 % 0 lf 1021,1 hPa 0,0 l/m 0,00 h 0,00 h 8 W/m 7,7 km/h (2 Bft) 97,08 %
18.03.2016 19:00 5,3 C 5,6 C 4,1 C 92 % 0 lf 1021,5 hPa 0,0 l/m 0,00 h 0,00 h 0 W/m 10,1 km/h (2 Bft) 93,54 %
18.03.2016 20:00 5,3 C 5,5 C 4,0 C 92 % 1 lf 1021,5 hPa 0,0 l/m 0,00 h 0,00 h 0 W/m 11,8 km/h (2 Bft) 97,01 %
18.03.2016 21:00 5,2 C 5,0 C 3,7 C 92 % 8 lf 1021,5 hPa 0,0 l/m 0,00 h 0,00 h 0 W/m 6,6 km/h (2 Bft) 96,65 %
18.03.2016 22:00 5,0 C 5,0 C 3,5 C 93 % 15 lf 1021,5 hPa 0,0 l/m 0,00 h 0,00 h 0 W/m 4,9 km/h (1 Bft) 96,15 %
18.03.2016 23:00 5,0 C 4,9 C 3,5 C 94 % 15 lf 1021,6 hPa 0,0 l/m 0,00 h 0,00 h 0 W/m 9,0 km/h (2 Bft) 95,02 %
19.03.2016 00:00 4,8 C 4,4 C 3,3 C 94 % 15 lf 1021,5 hPa 0,0 l/m 0,00 h 0,03 h 0 W/m 5,3 km/h (1 Bft) 96,35 %
19.03.2016 01:00 4,6 C 4,4 C 3,3 C 94 % 15 lf 1021,5 hPa 0,0 l/m 0,00 h 0,00 h 0 W/m 9,0 km/h (2 Bft) 96,51 %
19.03.2016 02:00 4,4 C 4,4 C 3,2 C 94 % 8 lf 1021,3 hPa 0,0 l/m 0,00 h 0,00 h 0 W/m 6,0 km/h (2 Bft) 95,59 %
19.03.2016 03:00 4,3 C 4,4 C 3,2 C 93 % 0 lf 1020,8 hPa 0,0 l/m 0,00 h 0,00 h 0 W/m 2,7 km/h (1 Bft) 97,86 %
19.03.2016 04:00 4,3 C 4,4 C 3,3 C 93 % 0 lf 1020,6 hPa 0,0 l/m 0,00 h 0,00 h 0 W/m 4,5 km/h (1 Bft) 92,61 %
19.03.2016 05:00 4,3 C 4,4 C 3,3 C 93 % 0 lf 1020,6 hPa 0,0 l/m 0,00 h 0,00 h 0 W/m 8,5 km/h (2 Bft) 97,01 %
19.03.2016 06:00 4,5 C 4,5 C 3,3 C 93 % 1 lf 1020,7 hPa 0,0 l/m 0,00 h 0,00 h 4 W/m 7,8 km/h (2 Bft) 98,08 %
19.03.2016 07:00 4,6 C 4,9 C 3,4 C 93 % 0 lf 1021,1 hPa 0,0 l/m 0,00 h 0,00 h 13 W/m 6,7 km/h (2 Bft) 94,66 %
19.03.2016 08:00 4,7 C 5,1 C 3,9 C 93 % 3 lf 1021,6 hPa 0,0 l/m 0,00 h 0,00 h 36 W/m 9,2 km/h (2 Bft) 95,54 %
19.03.2016 09:00 5,0 C 6,3 C 4,6 C 93 % 0 lf 1021,9 hPa 0,0 l/m 0,00 h 0,00 h 95 W/m 13,3 km/h (3 Bft) 97,37 %
19.03.2016 10:00 5,5 C 6,8 C 5,1 C 90 % 0 lf 1022,2 hPa 0,0 l/m 0,00 h 0,00 h 120 W/m 14,4 km/h (3 Bft) 94,87 %
19.03.2016 11:00 6,0 C 7,5 C 5,8 C 86 % 0 lf 1022,4 hPa 0,0 l/m 0,00 h 0,00 h 155 W/m 15,4 km/h (3 Bft) 96,80 %
19.03.2016 12:00 6,2 C 7,7 C 5,9 C 85 % 0 lf 1022,4 hPa 0,0 l/m 0,00 h 0,00 h 150 W/m 13,9 km/h (3 Bft) 96,58 %
19.03.2016 13:00 6,4 C 7,8 C 6,0 C 83 % 0 lf 1021,9 hPa 0,0 l/m 0,00 h 0,00 h 145 W/m 13,9 km/h (3 Bft) 93,74 %
19.03.2016 14:00 6,4 C 7,5 C 5,8 C 82 % 0 lf 1021,9 hPa 0,0 l/m 0,00 h 0,00 h 99 W/m 12,1 km/h (2 Bft) 98,15 %
19.03.2016 15:00 6,5 C 7,6 C 6,0 C 82 % 0 lf 1021,7 hPa 0,0 l/m 0,00 h 0,00 h 85 W/m 9,6 km/h (2 Bft) 96,37 %
19.03.2016 16:00 6,6 C 7,2 C 5,8 C 79 % 0 lf 1021,6 hPa 0,0 l/m 0,00 h 0,00 h 67 W/m 12,9 km/h (3 Bft) 94,09 %
19.03.2016 17:00 6,3 C 6,7 C 5,5 C 77 % 0 lf 1021,6 hPa 0,0 l/m 0,00 h 0,00 h 51 W/m 13,3 km/h (3 Bft) 97,37 %
19.03.2016 18:00 6,2 C 6,3 C 4,8 C 76 % 0 lf 1021,7 hPa 0,0 l/m 0,00 h 0,00 h 16 W/m 4,5 km/h (1 Bft) 97,37 %
19.03.2016 19:00 5,8 C 5,6 C 4,3 C 78 % 0 lf 1021,7 hPa 0,0 l/m 0,00 h 0,00 h 0 W/m 2,5 km/h (1 Bft) 94,38 %
19.03.2016 20:00 5,6 C 5,6 C 3,9 C 80 % 0 lf 1021,9 hPa 0,0 l/m 0,00 h 0,00 h 0 W/m 1,7 km/h (1 Bft) 97,01 %
19.03.2016 21:00 5,3 C 5,0 C 3,9 C 81 % 0 lf 1022,0 hPa 0,0 l/m 0,00 h 0,00 h 0 W/m 0,1 km/h (0 Bft) 95,94 %
19.03.2016 22:00 5,1 C 5,0 C 3,9 C 82 % 0 lf 1021,8 hPa 0,0 l/m 0,00 h 0,00 h 0 W/m 1,3 km/h (1 Bft) 95,23 %
19.03.2016 23:00 5,2 C 5,4 C 4,2 C 83 % 0 lf 1021,8 hPa 0,0 l/m 0,00 h 0,00 h 0 W/m 9,7 km/h (2 Bft) 97,30 %
20.03.2016 00:00 5,4 C 5,6 C 4,0 C 83 % 0 lf 1021,6 hPa 0,0 l/m 0,00 h 0,00 h 0 W/m 7,0 km/h (2 Bft) 93,24 %
20.03.2016 01:00 5,2 C 5,5 C 3,9 C 83 % 0 lf 1021,6 hPa 0,0 l/m 0,00 h 0,00 h 0 W/m 14,2 km/h (3 Bft) 96,87 %
20.03.2016 02:00 5,1 C 5,2 C 3,9 C 83 % 0 lf 1021,3 hPa 0,0 l/m 0,00 h 0,00 h 0 W/m 12,4 km/h (3 Bft) 97,58 %
20.03.2016 03:00 5,0 C 5,0 C 3,9 C 84 % 0 lf 1020,8 hPa 0,0 l/m 0,00 h 0,00 h 0 W/m 10,1 km/h (2 Bft) 95,66 %
20.03.2016 04:00 4,9 C 5,0 C 3,9 C 85 % 0 lf 1020,5 hPa 0,0 l/m 0,00 h 0,00 h 0 W/m 9,3 km/h (2 Bft) 94,66 %
20.03.2016 05:00 4,9 C 5,0 C 3,9 C 86 % 0 lf 1020,5 hPa 0,0 l/m 0,00 h 0,00 h 0 W/m 10,6 km/h (2 Bft) 97,73 %
20.03.2016 06:00 4,9 C 5,0 C 3,9 C 86 % 1 lf 1020,6 hPa 0,0 l/m 0,00 h 0,00 h 6 W/m 9,0 km/h (2 Bft) 95,72 %
20.03.2016 07:00 4,8 C 5,3 C 3,6 C 88 % 5 lf 1020,7 hPa 0,0 l/m 0,00 h 0,00 h 41 W/m 6,8 km/h (2 Bft) 97,08 %
20.03.2016 08:00 5,2 C 7,1 C 4,9 C 90 % 2 lf 1020,8 hPa 0,0 l/m 0,27 h 0,07 h 121 W/m 12,1 km/h (2 Bft) 95,23 %
20.03.2016 09:00 5,7 C 10,3 C 6,7 C 90 % 6 lf 1020,8 hPa 0,0 l/m 0,77 h 0,00 h 307 W/m 13,7 km/h (3 Bft) 95,44 %
20.03.2016 10:00 7,0 C 10,3 C 7,4 C 83 % 0 lf 1020,8 hPa 0,0 l/m 0,27 h 0,00 h 195 W/m 14,4 km/h (3 Bft) 96,32 %
20.03.2016 11:00 6,6 C 7,6 C 6,0 C 82 % 0 lf 1020,8 hPa 0,0 l/m 0,00 h 0,03 h 127 W/m 14,0 km/h (3 Bft) 96,01 %
20.03.2016 12:00 7,4 C 14,7 C 8,0 C 82 % 0 lf 1020,3 hPa 0,0 l/m 0,57 h 0,00 h 399 W/m 9,3 km/h (2 Bft) 94,20 %
20.03.2016 13:00 10,2 C 17,1 C 10,0 C 68 % 0 lf 1019,4 hPa 0,0 l/m 0,57 h 0,00 h 466 W/m 9,8 km/h (2 Bft) 98,36 %
20.03.2016 14:00 10,0 C 11,5 C 9,5 C 67 % 0 lf 1019,1 hPa 0,0 l/m 0,00 h 0,03 h 171 W/m 12,8 km/h (3 Bft) 95,14 %
20.03.2016 15:00 9,7 C 11,1 C 9,1 C 70 % 1 lf 1018,9 hPa 0,0 l/m 0,10 h 0,07 h 149 W/m 16,5 km/h (3 Bft) 94,64 %
20.03.2016 16:00 9,2 C 9,8 C 8,1 C 75 % 1 lf 1018,6 hPa 0,0 l/m 0,00 h 0,10 h 78 W/m 18,7 km/h (3 Bft) 96,78 %
20.03.2016 17:00 8,5 C 8,8 C 7,4 C 80 % 0 lf 1018,4 hPa 0,0 l/m 0,00 h 0,00 h 45 W/m 15,9 km/h (3 Bft) 97,72 %
20.03.2016 18:00 8,0 C 7,9 C 6,5 C 83 % 0 lf 1018,6 hPa 0,0 l/m 0,00 h 0,00 h 14 W/m 12,5 km/h (3 Bft) 92,99 %
20.03.2016 19:00 7,5 C 6,8 C 5,5 C 88 % 15 lf 1018,7 hPa 0,0 l/m 0,00 h 0,20 h 0 W/m 8,5 km/h (2 Bft) 98,12 %
20.03.2016 20:00 7,0 C 6,8 C 5,4 C 92 % 15 lf 1018,7 hPa 0,0 l/m 0,00 h 0,00 h 0 W/m 6,9 km/h (2 Bft) 95,64 %
20.03.2016 21:00 7,0 C 6,8 C 5,6 C 93 % 15 lf 1018,8 hPa 0,6 l/m 0,00 h 0,53 h 0 W/m 8,6 km/h (2 Bft) 96,02 %
20.03.2016 22:00 7,0 C 6,7 C 5,6 C 94 % 15 lf 1018,7 hPa 0,2 l/m 0,00 h 0,07 h 0 W/m 8,5 km/h (2 Bft) 95,78 %
20.03.2016 23:00 6,8 C 6,3 C 5,2 C 95 % 15 lf 1018,9 hPa 0,2 l/m 0,00 h 0,07 h 0 W/m 10,0 km/h (2 Bft) 95,67 %
Min-Datum _ 14.03.16 14.03.16 14.03.16 14.03.16 14.03.16 20.03.16 - - - - 15.03.16 16.03.16
_ Min-Zeit 06:08 05:34 05:06 16:30 00:00 17:48 - - - - 00:08 04:08
Minimum _ -1,6 C -2,2 C -2,8 C 47 % 0 lf 1018,3 hPa - - - - 0,0 km/h (0 Bft) 0,00 %
Max-Datum _ 17.03.16 17.03.16 17.03.16 18.03.16 18.03.16 14.03.16 20.03.16 14.03.16 19.03.16 20.03.16 16.03.16 14.03.16
_ Max-Zeit 16:28 12:32 11:24 10:50 06:08 07:52 21:30 07:06 00:54 13:26 10:14 02:20
Maximum _ 12,7 C 22,8 C 15,6 C 97 % 15 lf 1033,9 hPa 0,6 l/m 0,03 h 0,03 h 908 W/m 56,5 km/h
O (7 Bft)
100,00 %
Durchschnitt _ 4,9 C 6,1 C 3,9 C 80 % 2 lf 1025,2 hPa #1,0 l/m #33:21 h #1:12 h 194 W/m 13,7 km/h (3 Bft) 95,91 %
© 2016 W. Hausmann